createdAt,value
2023-02-06T00:00:03.564Z,97692.22
2023-02-06T00:02:30.966Z,97669.19
2023-02-06T00:04:57.610Z,97669.75
2023-02-06T00:07:24.454Z,97684.28
2023-02-06T00:09:53.466Z,97678.63
2023-02-06T00:15:09.120Z,97666.38
2023-02-06T00:17:35.682Z,97677.13
2023-02-06T00:20:02.360Z,97653.16
2023-02-06T00:22:29.127Z,97687.00
2023-02-06T00:24:56.166Z,97693.84
2023-02-06T00:27:22.933Z,97697.84
2023-02-06T00:29:49.918Z,97676.03
2023-02-06T00:35:04.323Z,97688.06
2023-02-06T00:37:33.966Z,97675.28
2023-02-06T00:40:00.871Z,97685.22
2023-02-06T00:42:27.748Z,97676.78
2023-02-06T00:44:54.617Z,97697.16
2023-02-06T00:47:21.206Z,97695.53
2023-02-06T00:49:48.175Z,97663.53
2023-02-06T00:52:15.588Z,97675.38
2023-02-06T00:54:42.428Z,97671.34
2023-02-06T00:57:09.228Z,97664.97
2023-02-06T00:59:35.775Z,97669.81
2023-02-06T01:02:02.710Z,97668.53
2023-02-06T01:04:29.587Z,97688.91
2023-02-06T01:06:56.156Z,97683.81
2023-02-06T01:12:38.162Z,97658.97
2023-02-06T01:15:04.718Z,97674.34
2023-02-06T01:17:32.597Z,97668.50
2023-02-06T01:19:59.218Z,97675.28
2023-02-06T01:22:25.761Z,97684.03
2023-02-06T01:24:52.857Z,97681.00
2023-02-06T01:27:19.692Z,97665.25
2023-02-06T01:29:47.045Z,97686.97
2023-02-06T01:32:13.974Z,97688.91
2023-02-06T01:34:40.907Z,97693.22
2023-02-06T01:37:07.721Z,97696.59
2023-02-06T01:39:35.339Z,97690.63
2023-02-06T01:42:02.281Z,97693.88
2023-02-06T01:44:29.842Z,97693.88
2023-02-06T01:46:57.527Z,97681.22
2023-02-06T01:49:24.005Z,97683.75
2023-02-06T01:51:50.554Z,97686.81
2023-02-06T01:54:20.112Z,97693.22
2023-02-06T01:56:49.036Z,97683.47
2023-02-06T01:59:15.955Z,97664.78
2023-02-06T02:01:43.637Z,97691.16
2023-02-06T02:04:11.161Z,97694.41
2023-02-06T02:06:38.716Z,97673.72
2023-02-06T02:09:05.473Z,97668.38
2023-02-06T02:11:32.124Z,97670.22
2023-02-06T02:14:06.188Z,97676.19
2023-02-06T02:16:33.186Z,97678.50
2023-02-06T02:19:00.015Z,97659.41
2023-02-06T02:21:33.777Z,97666.13
2023-02-06T02:24:00.759Z,97649.22
2023-02-06T02:26:27.591Z,97656.72
2023-02-06T02:28:54.396Z,97644.56
2023-02-06T02:31:20.981Z,97626.69
2023-02-06T02:33:48.270Z,97641.84
2023-02-06T02:36:16.745Z,97643.78
2023-02-06T02:38:43.601Z,97624.72
2023-02-06T02:41:10.428Z,97614.19
2023-02-06T02:43:37.189Z,97614.19
2023-02-06T02:46:04.043Z,97614.06
2023-02-06T02:48:32.368Z,97634.66
2023-02-06T02:50:59.204Z,97604.41
2023-02-06T02:53:26.001Z,97615.88
2023-02-06T02:55:52.816Z,97607.19
2023-02-06T02:58:19.710Z,97595.94
2023-02-06T03:00:46.283Z,97602.31
2023-02-06T03:03:13.361Z,97598.53
2023-02-06T03:05:40.192Z,97589.97
2023-02-06T03:08:07.462Z,97590.72
2023-02-06T03:13:19.641Z,97581.75
2023-02-06T03:15:46.461Z,97599.41
2023-02-06T03:18:15.562Z,97599.75
2023-02-06T03:20:42.407Z,97600.72
2023-02-06T03:23:08.889Z,97604.06
2023-02-06T03:25:35.912Z,97592.81
2023-02-06T03:31:18.356Z,97598.13
2023-02-06T03:33:44.885Z,97605.41
2023-02-06T03:36:12.422Z,97601.13
2023-02-06T03:38:39.210Z,97606.22
2023-02-06T03:41:06.024Z,97603.09
2023-02-06T03:46:48.243Z,97595.63
2023-02-06T03:49:14.766Z,97600.97
2023-02-06T03:51:41.601Z,97608.91
2023-02-06T03:54:08.357Z,97612.38
2023-02-06T03:56:35.217Z,97606.91
2023-02-06T04:01:32.037Z,97624.94
2023-02-06T04:03:58.892Z,97609.63
2023-02-06T04:09:13.131Z,97622.66
2023-02-06T04:11:40.629Z,97617.44
2023-02-06T04:14:07.936Z,97617.44
2023-02-06T04:16:34.770Z,97625.63
2023-02-06T04:19:03.544Z,97626.00
2023-02-06T04:21:32.505Z,97622.72
2023-02-06T04:23:59.344Z,97624.72
2023-02-06T04:26:27.356Z,97634.00
2023-02-06T04:28:54.182Z,97638.97
2023-02-06T04:31:20.767Z,97635.94
2023-02-06T04:33:47.512Z,97638.44
2023-02-06T04:36:16.073Z,97636.00
2023-02-06T04:38:42.507Z,97643.91
2023-02-06T04:41:09.342Z,97656.25
2023-02-06T04:43:35.868Z,97652.84
2023-02-06T04:46:02.668Z,97642.13
2023-02-06T04:48:29.238Z,97642.88
2023-02-06T04:50:55.869Z,97648.31
2023-02-06T04:53:22.658Z,97644.78
2023-02-06T04:55:49.515Z,97653.00
2023-02-06T04:58:18.385Z,97665.13
2023-02-06T05:00:47.281Z,97653.13
2023-02-06T05:03:14.137Z,97648.91
2023-02-06T05:05:41.140Z,97639.91
2023-02-06T05:08:07.700Z,97631.00
2023-02-06T05:10:34.470Z,97638.03
2023-02-06T05:15:52.743Z,97651.75
2023-02-06T05:18:19.378Z,97638.28
2023-02-06T05:20:46.081Z,97644.22
2023-02-06T05:23:12.630Z,97644.72
2023-02-06T05:25:40.828Z,97650.81
2023-02-06T05:28:08.833Z,97659.25
2023-02-06T05:30:35.809Z,97660.63
2023-02-06T05:33:03.368Z,97672.94
2023-02-06T05:35:29.994Z,97662.88
2023-02-06T05:37:56.608Z,97656.41
2023-02-06T05:40:24.166Z,97645.31
2023-02-06T05:49:16.788Z,97645.69
2023-02-06T05:51:44.558Z,97655.81
2023-02-06T05:54:29.303Z,97644.41
2023-02-06T05:57:03.568Z,97659.38
2023-02-06T05:59:31.073Z,97655.06
2023-02-06T06:01:59.143Z,97648.53
2023-02-06T06:04:32.879Z,97654.31
2023-02-06T06:24:47.163Z,97655.53
2023-02-06T06:27:15.090Z,97660.72
2023-02-06T06:29:42.205Z,97660.72
2023-02-06T06:32:10.296Z,97644.50
2023-02-06T06:34:39.387Z,97646.78
2023-02-06T06:37:06.319Z,97649.44
2023-02-06T06:39:36.756Z,97650.22
2023-02-06T06:42:04.771Z,97648.50
2023-02-06T06:47:40.824Z,97672.50
2023-02-06T06:50:10.782Z,97658.03
2023-02-06T06:52:39.848Z,97654.47
2023-02-06T06:55:07.650Z,97675.16
2023-02-06T06:57:34.262Z,97669.28
2023-02-06T07:00:02.024Z,97665.34
2023-02-06T07:02:29.926Z,97655.41
2023-02-06T07:04:56.932Z,97652.06
2023-02-06T07:07:23.789Z,97673.28
2023-02-06T07:09:51.854Z,97666.44
2023-02-06T07:12:21.621Z,97658.75
2023-02-06T07:14:48.408Z,97667.38
2023-02-06T07:17:17.043Z,97662.00
2023-02-06T07:19:48.126Z,97658.19
2023-02-06T07:22:15.179Z,97662.81
2023-02-06T07:24:45.088Z,97658.97
2023-02-06T07:27:12.080Z,97656.78
2023-02-06T07:32:29.728Z,97662.16
2023-02-06T07:34:56.707Z,97663.63
2023-02-06T07:37:23.869Z,97657.66
2023-02-06T07:39:51.219Z,97663.63
2023-02-06T07:42:18.124Z,97660.72
2023-02-06T07:44:44.731Z,97642.00
2023-02-06T07:47:12.402Z,97661.47
2023-02-06T07:49:39.886Z,97671.75
2023-02-06T07:52:06.785Z,97669.56
2023-02-06T07:54:33.700Z,97653.22
2023-02-06T07:57:04.489Z,97660.44
2023-02-06T07:59:31.350Z,97673.91
2023-02-06T08:01:58.313Z,97666.34
2023-02-06T08:04:28.751Z,97664.81
2023-02-06T08:06:55.574Z,97658.41
2023-02-06T08:09:22.202Z,97665.34
2023-02-06T08:11:48.983Z,97658.13
2023-02-06T08:14:16.067Z,97659.84
2023-02-06T08:16:44.755Z,97667.47
2023-02-06T08:19:11.796Z,97693.03
2023-02-06T08:21:38.737Z,97691.03
2023-02-06T08:24:05.810Z,97671.72
2023-02-06T08:26:32.840Z,97686.53
2023-02-06T08:28:59.814Z,97687.75
2023-02-06T08:31:26.931Z,97687.31
2023-02-06T08:33:53.634Z,97674.09
2023-02-06T08:42:47.005Z,97662.19
2023-02-06T08:45:14.761Z,97698.47
2023-02-06T08:47:41.452Z,97674.69
2023-02-06T08:50:08.903Z,97669.94
2023-02-06T08:52:40.254Z,97680.16
2023-02-06T08:55:08.730Z,97672.66
2023-02-06T08:57:36.286Z,97687.28
2023-02-06T09:00:03.677Z,97679.66
2023-02-06T09:02:31.421Z,97691.16
2023-02-06T09:04:58.324Z,97690.44
2023-02-06T09:07:24.945Z,97687.47
2023-02-06T09:09:56.604Z,97682.50
2023-02-06T09:12:23.510Z,97686.94
2023-02-06T09:14:50.547Z,97685.84
2023-02-06T09:17:17.372Z,97685.44
2023-02-06T09:19:44.302Z,97689.50
2023-02-06T09:22:10.960Z,97690.44
2023-02-06T09:24:38.153Z,97694.78
2023-02-06T09:27:06.928Z,97684.59
2023-02-06T09:29:33.906Z,97693.88
2023-02-06T09:32:00.446Z,97687.19
2023-02-06T09:34:27.116Z,97686.13
2023-02-06T09:36:54.668Z,97698.50
2023-02-06T09:39:21.576Z,97700.69
2023-02-06T09:41:50.385Z,97690.66
2023-02-06T09:44:17.026Z,97690.03
2023-02-06T09:46:43.656Z,97692.22
2023-02-06T09:49:10.499Z,97696.63
2023-02-06T09:51:37.154Z,97698.91
2023-02-06T09:54:03.730Z,97695.88
2023-02-06T09:56:31.091Z,97703.16
2023-02-06T09:58:59.720Z,97699.56
2023-02-06T10:01:26.661Z,97714.94
2023-02-06T10:03:59.492Z,97713.44
2023-02-06T10:06:26.102Z,97705.84
2023-02-06T10:08:52.922Z,97689.16
2023-02-06T10:11:20.042Z,97688.84
2023-02-06T10:13:51.312Z,97692.31
2023-02-06T10:16:18.270Z,97692.53
2023-02-06T10:18:45.317Z,97704.16
2023-02-06T10:21:11.934Z,97684.81
2023-02-06T10:23:38.899Z,97704.38
2023-02-06T10:26:05.998Z,97685.81
2023-02-06T10:28:32.860Z,97694.81
2023-02-06T10:33:44.069Z,97686.78
2023-02-06T10:36:11.431Z,97701.75
2023-02-06T10:38:38.202Z,97690.91
2023-02-06T10:41:05.398Z,97678.09
2023-02-06T10:43:32.379Z,97682.66
2023-02-06T10:45:59.841Z,97680.03
2023-02-06T10:48:26.716Z,97684.72
2023-02-06T10:50:53.724Z,97680.28
2023-02-06T10:53:20.787Z,97678.91
2023-02-06T10:55:49.246Z,97678.41
2023-02-06T10:58:16.162Z,97679.84
2023-02-06T11:00:42.684Z,97673.72
2023-02-06T11:03:10.656Z,97681.88
2023-02-06T11:05:37.787Z,97666.91
2023-02-06T11:08:05.529Z,97670.13
2023-02-06T11:10:32.300Z,97672.28
2023-02-06T11:13:01.288Z,97663.97
2023-02-06T11:18:48.043Z,97655.78
2023-02-06T11:21:15.488Z,97645.50
2023-02-06T11:23:44.283Z,97666.19
2023-02-06T11:26:11.657Z,97672.22
2023-02-06T11:28:38.473Z,97654.09
2023-02-06T11:31:05.426Z,97647.88
2023-02-06T11:33:34.178Z,97628.91
2023-02-06T11:36:05.306Z,97640.69
2023-02-06T11:38:35.031Z,97639.59
2023-02-06T11:41:05.544Z,97632.13
2023-02-06T11:43:32.362Z,97628.31
2023-02-06T11:45:59.322Z,97625.63
2023-02-06T11:48:26.180Z,97617.50
2023-02-06T11:50:53.063Z,97604.94
2023-02-06T11:53:20.000Z,97607.44
2023-02-06T11:55:47.486Z,97616.63
2023-02-06T11:58:16.133Z,97620.75
2023-02-06T12:00:43.489Z,97607.09
2023-02-06T12:03:10.284Z,97602.09
2023-02-06T12:05:40.074Z,97603.91
2023-02-06T12:08:07.537Z,97608.09
2023-02-06T12:10:34.407Z,97603.34
2023-02-06T12:13:01.525Z,97612.38
2023-02-06T12:15:45.420Z,97599.00
2023-02-06T12:18:15.973Z,97602.44
2023-02-06T12:20:42.836Z,97584.50
2023-02-06T12:23:09.450Z,97589.41
2023-02-06T12:25:36.569Z,97588.50
2023-02-06T12:28:09.775Z,97583.50
2023-02-06T12:30:36.705Z,97578.41
2023-02-06T12:33:05.039Z,97568.28
2023-02-06T12:35:31.646Z,97584.88
2023-02-06T12:38:01.530Z,97582.50
2023-02-06T12:40:28.392Z,97578.69
2023-02-06T12:42:55.746Z,97576.13
2023-02-06T12:45:22.630Z,97570.66
2023-02-06T12:47:51.168Z,97587.66
2023-02-06T12:50:19.724Z,97567.06
2023-02-06T12:52:48.106Z,97577.53
2023-02-06T12:55:14.865Z,97569.00
2023-02-06T12:57:42.593Z,97572.88
2023-02-06T13:00:09.471Z,97571.66
2023-02-06T13:02:36.127Z,97579.59
2023-02-06T13:05:03.773Z,97565.25
2023-02-06T13:07:32.230Z,97573.31
2023-02-06T13:13:20.255Z,97567.81
2023-02-06T13:15:47.252Z,97556.63
2023-02-06T13:18:20.863Z,97556.34
2023-02-06T13:20:54.894Z,97559.00
2023-02-06T13:23:21.963Z,97546.59
2023-02-06T13:25:51.131Z,97552.03
2023-02-06T13:28:17.989Z,97545.31
2023-02-06T13:30:45.543Z,97541.03
2023-02-06T13:33:12.191Z,97547.91
2023-02-06T13:35:39.648Z,97544.22
2023-02-06T13:38:10.384Z,97542.06
2023-02-06T13:40:39.623Z,97547.16
2023-02-06T13:43:06.707Z,97560.75
2023-02-06T13:45:33.385Z,97549.69
2023-02-06T13:48:00.157Z,97539.06
2023-02-06T13:50:27.261Z,97539.75
2023-02-06T13:52:56.324Z,97541.44
2023-02-06T13:55:23.525Z,97528.13
2023-02-06T13:57:50.127Z,97545.06
2023-02-06T14:00:16.908Z,97542.72
2023-02-06T14:02:45.553Z,97532.06
2023-02-06T14:05:13.361Z,97541.00
2023-02-06T14:07:53.448Z,97526.94
2023-02-06T14:10:20.454Z,97529.63
2023-02-06T14:12:49.588Z,97536.28
2023-02-06T14:15:18.582Z,97530.91
2023-02-06T14:17:57.072Z,97539.97
2023-02-06T14:20:41.530Z,97538.22
2023-02-06T14:23:08.266Z,97543.00
2023-02-06T14:25:36.081Z,97544.97
2023-02-06T14:28:05.163Z,97539.94
2023-02-06T14:30:33.718Z,97540.81
2023-02-06T14:33:02.682Z,97539.94
2023-02-06T14:35:31.029Z,97531.59
2023-02-06T14:37:57.903Z,97536.75
2023-02-06T14:40:26.054Z,97532.41
2023-02-06T14:42:57.669Z,97529.72
2023-02-06T14:45:33.778Z,97534.38
2023-02-06T14:48:05.545Z,97516.09
2023-02-06T14:50:37.034Z,97506.63
2023-02-06T14:53:06.994Z,97522.88
2023-02-06T14:55:34.494Z,97511.53
2023-02-06T14:58:01.427Z,97514.91
2023-02-06T15:00:33.849Z,97521.22
2023-02-06T15:03:02.293Z,97512.31
2023-02-06T15:05:30.680Z,97500.69
2023-02-06T15:07:58.099Z,97500.50
2023-02-06T15:10:24.703Z,97512.06
2023-02-06T15:12:53.211Z,97512.06
2023-02-06T15:15:22.430Z,97503.63
2023-02-06T15:17:55.163Z,97505.56
2023-02-06T15:20:22.529Z,97512.91
2023-02-06T15:22:49.222Z,97507.31
2023-02-06T15:25:20.172Z,97506.53
2023-02-06T15:27:46.796Z,97505.78
2023-02-06T15:30:14.958Z,97521.97
2023-02-06T15:32:42.577Z,97520.34
2023-02-06T15:35:09.342Z,97510.72
2023-02-06T15:37:36.223Z,97516.53
2023-02-06T15:40:03.641Z,97515.56
2023-02-06T15:42:30.594Z,97504.03
2023-02-06T15:45:01.096Z,97523.03
2023-02-06T15:47:28.087Z,97526.44
2023-02-06T15:49:58.052Z,97525.63
2023-02-06T15:52:24.827Z,97549.63
2023-02-06T15:54:55.893Z,97523.88
2023-02-06T15:57:23.438Z,97527.44
2023-02-06T15:59:50.111Z,97520.53
2023-02-06T16:02:19.079Z,97523.09
2023-02-06T16:04:46.146Z,97521.97
2023-02-06T16:07:13.136Z,97517.78
2023-02-06T16:46:26.520Z,97492.53
2023-02-06T16:49:00.275Z,97501.78
2023-02-06T16:51:29.294Z,97506.25
2023-02-06T16:54:00.791Z,97501.47
2023-02-06T16:56:28.082Z,97507.66
2023-02-06T16:59:00.096Z,97503.88
2023-02-06T17:01:28.184Z,97499.97
2023-02-06T17:03:58.379Z,97514.50
2023-02-06T17:06:25.411Z,97500.63
2023-02-06T17:08:53.030Z,97506.34
2023-02-06T17:11:21.658Z,97499.44
2023-02-06T17:13:49.509Z,97496.09
2023-02-06T17:16:16.316Z,97500.91
2023-02-06T17:18:43.056Z,97510.75
2023-02-06T17:21:12.249Z,97501.28
2023-02-06T17:23:38.850Z,97506.38
2023-02-06T17:26:08.680Z,97503.16
2023-02-06T17:28:39.722Z,97506.72
2023-02-06T17:31:07.280Z,97504.13
2023-02-06T17:33:38.055Z,97501.88
2023-02-06T17:36:07.774Z,97512.81
2023-02-06T17:38:36.427Z,97513.69
2023-02-06T17:41:05.840Z,97501.31
2023-02-06T17:43:32.563Z,97517.97
2023-02-06T17:45:59.364Z,97516.16
2023-02-06T17:48:27.519Z,97513.13
2023-02-06T17:50:54.390Z,97522.16
2023-02-06T17:53:21.184Z,97516.72
2023-02-06T17:55:47.702Z,97511.94
2023-02-06T18:00:47.897Z,97513.38
2023-02-06T18:03:21.093Z,97510.00
2023-02-06T18:05:50.704Z,97497.63
2023-02-06T18:08:36.577Z,97494.63
2023-02-06T18:17:36.792Z,97475.44
2023-02-06T18:20:05.985Z,97485.19
2023-02-06T18:22:33.252Z,97477.91
2023-02-06T18:25:00.141Z,97494.16
2023-02-06T18:27:26.740Z,97484.84
2023-02-06T18:32:28.855Z,97480.19
2023-02-06T18:34:57.224Z,97464.91
2023-02-06T18:37:24.225Z,97451.47
2023-02-06T18:39:51.172Z,97447.38
2023-02-06T18:42:17.831Z,97456.56
2023-02-06T18:44:44.789Z,97451.59
2023-02-06T18:47:11.485Z,97439.13
2023-02-06T18:49:38.476Z,97434.25
2023-02-06T18:52:05.572Z,97418.44
2023-02-06T18:54:33.923Z,97431.53
2023-02-06T18:57:01.095Z,97444.75
2023-02-06T18:59:27.937Z,97421.38
2023-02-06T19:01:54.565Z,97407.16
2023-02-06T19:04:25.347Z,97402.72
2023-02-06T19:06:55.180Z,97416.69
2023-02-06T19:09:21.940Z,97409.47
2023-02-06T19:11:51.126Z,97401.63
2023-02-06T19:14:17.667Z,97402.84
2023-02-06T19:16:44.116Z,97382.97
2023-02-06T19:35:27.659Z,97349.97
2023-02-06T19:37:54.486Z,97344.13
2023-02-06T19:40:22.006Z,97371.16
2023-02-06T19:42:48.562Z,97340.09
2023-02-06T19:45:15.075Z,97346.91
2023-02-06T19:47:41.962Z,97316.94
2023-02-06T19:50:08.430Z,97320.19
2023-02-06T19:52:38.150Z,97325.84
2023-02-06T19:55:04.748Z,97325.59
2023-02-06T19:57:32.124Z,97319.97
2023-02-06T19:59:59.631Z,97319.66
2023-02-06T20:02:26.310Z,97311.13
2023-02-06T20:04:53.184Z,97310.34
2023-02-06T20:29:59.581Z,97270.88
2023-02-06T20:32:26.150Z,97281.72
2023-02-06T22:55:52.884Z,97169.94
2023-02-06T22:58:20.334Z,97163.19
2023-02-06T23:00:56.926Z,97166.41
2023-02-06T23:03:24.351Z,97164.75
2023-02-06T23:05:50.890Z,97157.88
2023-02-06T23:08:17.748Z,97153.53
2023-02-06T23:10:45.248Z,97147.22
2023-02-06T23:13:12.533Z,97150.25
2023-02-06T23:15:42.550Z,97155.88
2023-02-06T23:18:09.663Z,97156.06
2023-02-06T23:20:36.532Z,97149.53
2023-02-06T23:23:03.377Z,97159.91
2023-02-06T23:25:29.958Z,97138.09
2023-02-06T23:27:57.424Z,97139.88
2023-02-06T23:30:24.368Z,97154.75
2023-02-06T23:32:54.179Z,97149.78
2023-02-06T23:35:20.857Z,97140.06
2023-02-06T23:37:48.424Z,97168.81
2023-02-06T23:40:15.270Z,97142.97
2023-02-06T23:42:42.105Z,97150.88
2023-02-06T23:45:08.968Z,97122.75
2023-02-06T23:47:36.292Z,97116.31
2023-02-06T23:50:02.911Z,97128.28
2023-02-06T23:52:29.670Z,97121.59
2023-02-06T23:54:57.074Z,97117.47
2023-02-06T23:57:24.589Z,97131.75
2023-02-06T23:59:51.473Z,97133.75
